createdAt,value
2018-11-29T00:01:41.156Z,98798.09
2018-11-29T00:04:45.326Z,98792.82
2018-11-29T00:07:49.484Z,98791.54
2018-11-29T00:10:53.897Z,98785.64
2018-11-29T00:13:58.053Z,98782.63
2018-11-29T00:17:02.197Z,98779.77
2018-11-29T00:20:15.317Z,98778.82
2018-11-29T00:23:19.540Z,98786.33
2018-11-29T00:26:23.681Z,98785.00
2018-11-29T00:29:27.833Z,98783.58
2018-11-29T00:32:31.993Z,98789.42
2018-11-29T00:35:36.263Z,98794.06
2018-11-29T00:38:40.534Z,98788.20
2018-11-29T00:41:44.639Z,98785.32
2018-11-29T00:44:48.746Z,98779.34
2018-11-29T00:47:53.177Z,98779.88
2018-11-29T00:50:57.424Z,98776.77
2018-11-29T00:54:01.625Z,98774.39
2018-11-29T00:57:06.386Z,98783.03
2018-11-29T01:00:19.157Z,98779.19
2018-11-29T01:03:23.255Z,98778.31
2018-11-29T01:06:27.348Z,98775.94
2018-11-29T01:09:31.525Z,98775.80
2018-11-29T01:12:35.670Z,98777.85
2018-11-29T01:15:39.767Z,98781.70
2018-11-29T01:18:43.873Z,98787.01
2018-11-29T01:21:47.972Z,98795.84
2018-11-29T01:24:52.076Z,98780.83
2018-11-29T01:27:56.188Z,98776.63
2018-11-29T01:31:00.300Z,98776.08
2018-11-29T01:34:04.400Z,98783.17
2018-11-29T01:37:08.504Z,98781.25
2018-11-29T01:40:18.682Z,98788.62
2018-11-29T01:43:22.780Z,98783.81
2018-11-29T01:46:26.880Z,98772.92
2018-11-29T01:49:30.984Z,98763.45
2018-11-29T01:52:35.098Z,98764.50
2018-11-29T01:55:39.217Z,98763.17
2018-11-29T01:58:43.333Z,98757.36
2018-11-29T02:01:47.442Z,98761.62
2018-11-29T02:04:51.552Z,98747.84
2018-11-29T02:07:55.656Z,98747.56
2018-11-29T02:10:59.768Z,98746.06
2018-11-29T02:14:03.882Z,98746.60
2018-11-29T02:17:08.020Z,98747.84
2018-11-29T02:20:14.955Z,98750.05
2018-11-29T02:23:19.052Z,98740.61
2018-11-29T02:26:23.156Z,98734.57
2018-11-29T02:29:27.316Z,98719.66
2018-11-29T02:32:31.443Z,98718.32
2018-11-29T02:35:35.625Z,98717.41
2018-11-29T02:38:39.742Z,98720.47
2018-11-29T02:41:43.877Z,98714.63
2018-11-29T02:44:47.997Z,98711.23
2018-11-29T02:47:52.176Z,98712.20
2018-11-29T02:50:56.300Z,98718.47
2018-11-29T02:54:00.436Z,98712.42
2018-11-29T02:57:04.552Z,98703.95
2018-11-29T03:00:14.214Z,98697.01
2018-11-29T03:03:18.453Z,98697.83
2018-11-29T03:06:22.609Z,98692.61
2018-11-29T03:09:26.728Z,98706.24
2018-11-29T03:12:30.877Z,98712.74
2018-11-29T03:15:35.012Z,98705.94
2018-11-29T03:18:39.179Z,98703.64
2018-11-29T03:21:43.403Z,98701.44
2018-11-29T03:24:47.488Z,98698.92
2018-11-29T03:27:51.669Z,98703.45
2018-11-29T03:30:55.797Z,98694.38
2018-11-29T03:33:59.917Z,98690.53
2018-11-29T03:37:04.053Z,98701.27
2018-11-29T03:40:13.140Z,98705.75
2018-11-29T03:43:17.269Z,98695.13
2018-11-29T03:46:21.399Z,98697.63
2018-11-29T03:49:25.512Z,98676.08
2018-11-29T03:52:29.650Z,98674.03
2018-11-29T03:55:33.775Z,98670.34
2018-11-29T03:58:37.904Z,98668.55
2018-11-29T04:01:42.028Z,98679.45
2018-11-29T04:04:46.179Z,98683.37
2018-11-29T04:07:50.300Z,98683.97
2018-11-29T04:10:54.492Z,98688.83
2018-11-29T04:13:58.617Z,98694.12
2018-11-29T04:17:02.746Z,98686.36
2018-11-29T04:20:12.070Z,98683.21
2018-11-29T04:23:16.177Z,98675.27
2018-11-29T04:26:20.298Z,98672.39
2018-11-29T04:29:24.481Z,98670.56
2018-11-29T04:32:28.608Z,98663.59
2018-11-29T04:35:32.733Z,98654.98
2018-11-29T04:38:37.101Z,98655.01
2018-11-29T04:41:41.216Z,98648.67
2018-11-29T04:44:45.393Z,98643.47
2018-11-29T04:47:49.540Z,98643.13
2018-11-29T04:50:53.680Z,98644.19
2018-11-29T04:53:57.824Z,98640.18
2018-11-29T04:57:01.964Z,98642.48
2018-11-29T05:00:16.545Z,98648.16
2018-11-29T05:03:20.674Z,98642.61
2018-11-29T05:06:24.849Z,98648.89
2018-11-29T05:09:28.965Z,98643.72
2018-11-29T05:12:33.077Z,98638.92
2018-11-29T05:15:37.248Z,98639.12
2018-11-29T05:18:41.369Z,98639.27
2018-11-29T05:21:45.489Z,98639.37
2018-11-29T05:24:49.665Z,98650.00
2018-11-29T05:27:53.959Z,98650.78
2018-11-29T05:30:58.069Z,98654.66
2018-11-29T05:34:02.204Z,98663.11
2018-11-29T05:37:07.149Z,98667.13
2018-11-29T05:40:13.141Z,98670.55
2018-11-29T05:43:17.260Z,98652.45
2018-11-29T05:46:21.466Z,98652.49
2018-11-29T05:49:25.704Z,98651.24
2018-11-29T05:52:29.828Z,98666.16
2018-11-29T05:55:33.952Z,98667.67
2018-11-29T05:58:38.093Z,98660.58
2018-11-29T06:01:44.001Z,98659.58
2018-11-29T06:04:49.269Z,98656.11
2018-11-29T06:07:53.487Z,98648.83
2018-11-29T06:10:57.728Z,98654.34
2018-11-29T06:14:01.848Z,98648.53
2018-11-29T06:17:05.991Z,98644.96
2018-11-29T06:20:15.656Z,98635.86
2018-11-29T06:23:19.891Z,98645.64
2018-11-29T06:26:24.070Z,98650.04
2018-11-29T06:29:28.220Z,98645.18
2018-11-29T06:32:32.384Z,98647.20
2018-11-29T06:35:36.525Z,98643.91
2018-11-29T06:38:40.697Z,98646.31
2018-11-29T06:41:44.844Z,98641.04
2018-11-29T06:44:49.000Z,98638.71
2018-11-29T06:47:53.513Z,98634.09
2018-11-29T06:50:57.700Z,98634.95
2018-11-29T06:54:01.859Z,98630.52
2018-11-29T06:57:06.260Z,98622.37
2018-11-29T07:00:15.776Z,98618.20
2018-11-29T07:03:19.926Z,98605.72
2018-11-29T07:06:24.060Z,98602.37
2018-11-29T07:09:28.211Z,98596.95
2018-11-29T07:12:32.344Z,98605.23
2018-11-29T07:15:36.560Z,98604.84
2018-11-29T07:18:40.700Z,98602.19
2018-11-29T07:21:52.873Z,98616.69
2018-11-29T07:24:57.012Z,98630.70
2018-11-29T07:28:01.185Z,98631.32
2018-11-29T07:31:05.411Z,98627.91
2018-11-29T07:34:09.738Z,98617.94
2018-11-29T07:37:17.375Z,98615.25
2018-11-29T07:40:19.953Z,98610.91
2018-11-29T07:43:24.109Z,98599.34
2018-11-29T07:46:28.249Z,98599.84
2018-11-29T07:49:32.384Z,98596.13
2018-11-29T07:52:36.580Z,98592.50
2018-11-29T07:55:40.760Z,98582.54
2018-11-29T07:58:44.906Z,98583.84
2018-11-29T08:01:49.054Z,98586.38
2018-11-29T08:04:53.253Z,98587.77
2018-11-29T08:07:57.400Z,98602.16
2018-11-29T08:11:01.624Z,98599.97
2018-11-29T08:14:06.029Z,98590.73
2018-11-29T08:17:10.169Z,98582.33
2018-11-29T08:20:17.017Z,98593.58
2018-11-29T08:23:21.170Z,98582.45
2018-11-29T08:26:25.316Z,98567.89
2018-11-29T08:29:32.929Z,98563.37
2018-11-29T08:32:33.594Z,98562.47
2018-11-29T08:35:37.905Z,98564.73
2018-11-29T08:38:42.051Z,98553.56
2018-11-29T08:41:46.242Z,98547.66
2018-11-29T08:44:50.379Z,98554.23
2018-11-29T08:47:54.514Z,98545.70
2018-11-29T08:50:58.632Z,98542.81
2018-11-29T08:54:02.797Z,98534.84
2018-11-29T08:57:07.040Z,98523.69
2018-11-29T09:00:20.417Z,98525.95
2018-11-29T09:03:24.567Z,98525.91
2018-11-29T09:06:28.684Z,98522.03
2018-11-29T09:09:32.816Z,98521.53
2018-11-29T09:12:36.938Z,98525.00
2018-11-29T09:15:41.137Z,98522.88
2018-11-29T09:18:45.271Z,98527.84
2018-11-29T09:21:49.385Z,98519.36
2018-11-29T09:24:53.508Z,98529.61
2018-11-29T09:27:57.636Z,98524.61
2018-11-29T09:31:01.922Z,98531.06
2018-11-29T09:34:06.351Z,98529.44
2018-11-29T09:37:10.581Z,98536.00
2018-11-29T09:40:17.249Z,98543.86
2018-11-29T09:43:21.357Z,98542.40
2018-11-29T09:46:25.472Z,98540.49
2018-11-29T09:49:29.601Z,98538.23
2018-11-29T09:52:33.741Z,98540.75
2018-11-29T09:55:37.859Z,98533.22
2018-11-29T09:58:41.980Z,98521.33
2018-11-29T10:01:46.100Z,98498.63
2018-11-29T10:04:50.282Z,98485.02
2018-11-29T10:07:54.396Z,98469.34
2018-11-29T10:10:58.509Z,98462.56
2018-11-29T10:14:02.626Z,98457.29
2018-11-29T10:17:06.794Z,98452.33
2018-11-29T10:20:13.029Z,98444.26
2018-11-29T10:23:17.148Z,98449.28
2018-11-29T10:26:21.349Z,98452.54
2018-11-29T10:29:25.519Z,98432.27
2018-11-29T10:32:29.629Z,98430.50
2018-11-29T10:35:33.802Z,98431.58
2018-11-29T10:38:37.937Z,98439.66
2018-11-29T10:41:42.137Z,98444.63
2018-11-29T10:44:46.257Z,98433.28
2018-11-29T10:47:53.493Z,98435.59
2018-11-29T10:50:57.645Z,98430.64
2018-11-29T10:54:01.772Z,98421.89
2018-11-29T10:57:06.372Z,98412.41
2018-11-29T11:00:31.185Z,98403.69
2018-11-29T11:03:35.328Z,98402.55
2018-11-29T11:06:39.533Z,98400.00
2018-11-29T11:09:43.673Z,98405.66
2018-11-29T11:12:47.781Z,98405.14
2018-11-29T11:15:51.899Z,98401.40
2018-11-29T11:18:55.997Z,98407.00
2018-11-29T11:22:00.120Z,98399.37
2018-11-29T11:25:04.616Z,98404.66
2018-11-29T11:28:09.959Z,98415.06
2018-11-29T11:31:14.092Z,98410.42
2018-11-29T11:34:18.221Z,98404.55
2018-11-29T11:37:22.336Z,98399.72
2018-11-29T11:40:26.535Z,98383.36
2018-11-29T11:43:30.617Z,98371.74
2018-11-29T11:46:34.788Z,98376.49
2018-11-29T11:49:38.957Z,98391.75
2018-11-29T11:52:43.124Z,98400.37
2018-11-29T11:55:53.309Z,98417.28
2018-11-29T11:58:51.340Z,98394.52
2018-11-29T12:01:55.545Z,98392.39
2018-11-29T12:04:59.663Z,98378.47
2018-11-29T12:08:03.789Z,98371.50
2018-11-29T12:11:07.929Z,98360.25
2018-11-29T12:14:12.037Z,98353.77
2018-11-29T12:17:16.160Z,98367.63
2018-11-29T12:20:20.940Z,98361.23
2018-11-29T12:23:25.101Z,98353.53
2018-11-29T12:26:29.216Z,98354.86
2018-11-29T12:29:33.433Z,98353.77
2018-11-29T12:32:37.557Z,98343.61
2018-11-29T12:35:41.681Z,98339.34
2018-11-29T12:38:45.794Z,98324.11
2018-11-29T12:41:49.905Z,98317.45
2018-11-29T12:44:54.030Z,98308.63
2018-11-29T12:47:58.240Z,98305.42
2018-11-29T12:51:02.365Z,98301.38
2018-11-29T12:54:07.501Z,98294.37
2018-11-29T12:57:11.612Z,98294.63
2018-11-29T13:00:17.990Z,98295.97
2018-11-29T13:03:22.092Z,98297.61
2018-11-29T13:06:26.213Z,98298.69
2018-11-29T13:09:30.320Z,98293.90
2018-11-29T13:12:34.444Z,98283.73
2018-11-29T13:15:38.572Z,98281.59
2018-11-29T13:18:42.679Z,98275.66
2018-11-29T13:21:46.802Z,98276.17
2018-11-29T13:24:50.928Z,98280.48
2018-11-29T13:27:55.047Z,98277.80
2018-11-29T13:30:59.251Z,98271.16
2018-11-29T13:34:03.368Z,98263.92
2018-11-29T13:37:07.581Z,98263.09
2018-11-29T13:40:12.213Z,98259.63
2018-11-29T13:43:16.416Z,98254.27
2018-11-29T13:46:20.541Z,98248.89
2018-11-29T13:49:24.657Z,98250.19
2018-11-29T13:52:28.785Z,98237.84
2018-11-29T13:55:32.955Z,98237.28
2018-11-29T13:58:37.101Z,98235.11
2018-11-29T14:01:41.216Z,98232.70
2018-11-29T14:04:45.353Z,98242.82
2018-11-29T14:07:49.467Z,98246.30
2018-11-29T14:10:53.589Z,98233.18
2018-11-29T14:13:57.696Z,98241.98
2018-11-29T14:17:01.811Z,98249.73
2018-11-29T14:20:07.230Z,98253.22
2018-11-29T14:23:11.369Z,98248.37
2018-11-29T14:26:15.556Z,98239.49
2018-11-29T14:29:19.617Z,98232.84
2018-11-29T14:32:23.817Z,98236.27
2018-11-29T14:35:27.946Z,98244.55
2018-11-29T14:38:32.058Z,98236.77
2018-11-29T14:41:36.283Z,98232.79
2018-11-29T14:44:41.123Z,98219.41
2018-11-29T14:47:45.365Z,98217.52
2018-11-29T14:50:49.544Z,98208.17
2018-11-29T14:53:53.761Z,98212.16
2018-11-29T14:56:57.930Z,98210.22
2018-11-29T15:00:02.122Z,98198.75
2018-11-29T15:03:09.281Z,98202.19
2018-11-29T15:06:13.414Z,98195.74
2018-11-29T15:09:17.584Z,98192.98
2018-11-29T15:12:22.276Z,98193.53
2018-11-29T15:15:26.784Z,98174.59
2018-11-29T15:18:30.922Z,98153.98
2018-11-29T15:21:35.053Z,98153.94
2018-11-29T15:24:39.232Z,98141.66
2018-11-29T15:27:43.359Z,98125.10
2018-11-29T15:30:47.481Z,98114.92
2018-11-29T15:33:51.613Z,98109.82
2018-11-29T15:36:55.803Z,98134.91
2018-11-29T15:39:59.929Z,98164.79
2018-11-29T15:43:04.688Z,98173.88
2018-11-29T15:46:08.242Z,98185.88
2018-11-29T15:49:12.383Z,98189.09
2018-11-29T15:52:16.675Z,98205.73
2018-11-29T15:55:22.348Z,98219.91
2018-11-29T15:58:26.469Z,98213.99
2018-11-29T16:01:30.672Z,98207.35
2018-11-29T16:04:34.880Z,98207.58
2018-11-29T16:07:39.003Z,98208.83
2018-11-29T16:10:43.143Z,98199.48
2018-11-29T16:13:47.265Z,98190.17
2018-11-29T16:16:51.380Z,98176.48
2018-11-29T16:19:55.572Z,98184.97
2018-11-29T16:22:59.714Z,98188.39
2018-11-29T16:26:03.826Z,98180.94
2018-11-29T16:29:07.982Z,98172.64
2018-11-29T16:32:12.919Z,98173.97
2018-11-29T16:35:17.040Z,98168.34
2018-11-29T16:38:21.193Z,98164.09
2018-11-29T16:41:25.312Z,98164.28
2018-11-29T16:44:29.421Z,98163.23
2018-11-29T16:47:33.548Z,98165.64
2018-11-29T16:50:38.757Z,98172.64
2018-11-29T16:53:42.907Z,98167.56
2018-11-29T16:56:47.037Z,98162.75
2018-11-29T16:59:51.237Z,98159.30
2018-11-29T17:02:55.577Z,98161.97
2018-11-29T17:05:59.692Z,98152.38
2018-11-29T17:09:04.084Z,98158.23
2018-11-29T17:12:08.214Z,98159.14
2018-11-29T17:15:17.257Z,98165.80
2018-11-29T17:18:21.469Z,98170.13
2018-11-29T17:21:25.668Z,98157.64
2018-11-29T17:24:29.808Z,98158.58
2018-11-29T17:27:33.932Z,98159.88
2018-11-29T17:30:38.537Z,98157.96
2018-11-29T17:33:42.696Z,98154.96
2018-11-29T17:36:46.828Z,98148.00
2018-11-29T17:39:50.939Z,98141.15
2018-11-29T17:42:56.112Z,98145.80
2018-11-29T17:46:00.278Z,98150.27
2018-11-29T17:49:04.407Z,98147.78
2018-11-29T17:52:08.608Z,98138.33
2018-11-29T17:55:12.723Z,98139.48
2018-11-29T17:58:17.128Z,98134.97
2018-11-29T18:01:21.243Z,98142.45
2018-11-29T18:04:25.356Z,98154.09
2018-11-29T18:07:29.472Z,98150.60
2018-11-29T18:10:36.452Z,98165.55
2018-11-29T18:13:42.013Z,98169.75
2018-11-29T18:16:46.125Z,98170.22
2018-11-29T18:19:50.248Z,98160.54
2018-11-29T18:22:54.365Z,98155.48
2018-11-29T18:25:58.489Z,98147.66
2018-11-29T18:29:02.693Z,98155.95
2018-11-29T18:32:07.239Z,98150.53
2018-11-29T18:35:12.602Z,98143.86
2018-11-29T18:38:16.784Z,98149.73
2018-11-29T18:41:20.901Z,98147.86
2018-11-29T18:44:25.028Z,98145.28
2018-11-29T18:47:29.149Z,98148.61
2018-11-29T18:50:33.357Z,98141.84
2018-11-29T18:53:37.492Z,98150.56
2018-11-29T18:56:41.681Z,98147.80
2018-11-29T18:59:45.805Z,98144.41
2018-11-29T19:02:49.944Z,98147.75
2018-11-29T19:05:54.154Z,98148.09
2018-11-29T19:08:58.266Z,98155.75
2018-11-29T19:12:02.448Z,98149.05
2018-11-29T19:15:10.335Z,98146.00
2018-11-29T19:18:14.615Z,98135.98
2018-11-29T19:21:18.821Z,98143.45
2018-11-29T19:24:23.037Z,98138.45
2018-11-29T19:27:27.166Z,98144.27
2018-11-29T19:30:32.157Z,98147.38
2018-11-29T19:33:36.291Z,98137.91
2018-11-29T19:36:40.416Z,98139.05
2018-11-29T19:39:44.728Z,98132.17
2018-11-29T19:42:48.766Z,98130.15
2018-11-29T19:45:53.036Z,98133.95
2018-11-29T19:48:57.229Z,98135.91
2018-11-29T19:52:01.358Z,98137.53
2018-11-29T19:55:06.458Z,98137.91
2018-11-29T19:58:10.691Z,98139.32
2018-11-29T20:01:14.805Z,98131.72
2018-11-29T20:04:18.921Z,98133.69
2018-11-29T20:07:23.116Z,98140.28
2018-11-29T20:10:27.243Z,98150.41
2018-11-29T20:13:31.399Z,98146.22
2018-11-29T20:16:35.576Z,98148.94
2018-11-29T20:19:39.701Z,98140.86
2018-11-29T20:22:43.929Z,98135.64
2018-11-29T20:25:48.249Z,98138.86
2018-11-29T20:28:52.370Z,98143.62
2018-11-29T20:31:56.561Z,98143.88
2018-11-29T20:35:00.681Z,98143.94
2018-11-29T20:38:05.097Z,98152.88
2018-11-29T20:41:09.945Z,98149.63
2018-11-29T20:44:14.122Z,98155.45
2018-11-29T20:47:18.200Z,98155.56
2018-11-29T20:50:24.404Z,98153.12
2018-11-29T20:53:35.437Z,98151.90
2018-11-29T20:56:39.637Z,98154.13
2018-11-29T20:59:43.766Z,98162.09
2018-11-29T21:02:47.877Z,98157.72
2018-11-29T21:05:52.005Z,98159.39
2018-11-29T21:08:56.297Z,98166.03
2018-11-29T21:12:00.643Z,98161.66
2018-11-29T21:15:05.154Z,98170.23
2018-11-29T21:18:12.146Z,98171.23
2018-11-29T21:21:16.268Z,98161.54
2018-11-29T21:24:20.402Z,98170.12
2018-11-29T21:27:24.573Z,98162.72
2018-11-29T21:30:28.714Z,98158.38
2018-11-29T21:33:32.824Z,98153.48
2018-11-29T21:36:36.934Z,98153.58
2018-11-29T21:39:41.048Z,98154.40
2018-11-29T21:42:45.177Z,98147.85
2018-11-29T21:45:49.299Z,98140.22
2018-11-29T21:48:53.418Z,98148.05
2018-11-29T21:51:57.542Z,98139.05
2018-11-29T21:55:02.252Z,98134.22
2018-11-29T21:58:06.367Z,98135.82
2018-11-29T22:01:10.493Z,98134.11
2018-11-29T22:04:14.620Z,98129.04
2018-11-29T22:07:18.797Z,98135.23
2018-11-29T22:10:22.932Z,98130.49
2018-11-29T22:13:27.061Z,98141.73
2018-11-29T22:16:31.181Z,98131.05
2018-11-29T22:19:35.305Z,98133.95
2018-11-29T22:22:39.927Z,98126.58
2018-11-29T22:25:44.536Z,98127.73
2018-11-29T22:28:48.648Z,98133.52
2018-11-29T22:31:52.777Z,98125.44
2018-11-29T22:34:56.893Z,98132.65
2018-11-29T22:38:01.015Z,98132.62
2018-11-29T22:41:05.424Z,98134.88
2018-11-29T22:44:09.544Z,98125.37
2018-11-29T22:47:13.729Z,98116.87
2018-11-29T22:50:17.874Z,98113.55
2018-11-29T22:53:21.995Z,98118.53
2018-11-29T22:56:26.121Z,98118.05
2018-11-29T22:59:30.261Z,98115.21
2018-11-29T23:02:34.439Z,98115.91
2018-11-29T23:05:38.621Z,98117.50
2018-11-29T23:08:42.776Z,98119.91
2018-11-29T23:11:46.935Z,98115.36
2018-11-29T23:14:51.121Z,98111.25
2018-11-29T23:17:55.265Z,98106.27
2018-11-29T23:20:59.448Z,98113.15
2018-11-29T23:24:03.609Z,98112.34
2018-11-29T23:27:08.608Z,98107.11
2018-11-29T23:30:15.365Z,98105.59
2018-11-29T23:33:19.517Z,98095.27
2018-11-29T23:36:25.291Z,98105.66
2018-11-29T23:39:29.449Z,98116.03
2018-11-29T23:42:33.603Z,98116.36
2018-11-29T23:45:37.861Z,98122.62
2018-11-29T23:48:42.005Z,98119.37
2018-11-29T23:51:46.149Z,98114.70
2018-11-29T23:54:50.314Z,98104.67
2018-11-29T23:57:54.457Z,98098.60
